Time;durP1;ratioP1;P1;durP2;ratioP2;P2;SDS_P1;SDS_P2;PMS_P1;PMS_P2;Temp;Humidity;BMP_temperature;BMP_pressure;BME280_temperature;BME280_humidity;BME280_pressure;Samples;Min_cycle;Max_cycle;Signal;HPM_P1;HPM_P2
2021/08/25 00:01:12;;;;;;;9.83;8.27;;;29.50;43.00;;;;;;5035380;28;20485;-43
2021/08/25 00:03:44;;;;;;;7.13;6.57;;;29.60;42.70;;;;;;5056666;28;20495;-42
2021/08/25 00:06:15;;;;;;;8.20;7.37;;;29.50;42.80;;;;;;5042544;28;20464;-45
2021/08/25 00:08:48;;;;;;;8.00;7.30;;;29.50;42.30;;;;;;5042804;28;20820;-42
2021/08/25 00:11:20;;;;;;;8.00;7.40;;;29.20;43.40;;;;;;5041970;28;20489;-40
2021/08/25 00:13:52;;;;;;;7.40;6.70;;;29.20;44.50;;;;;;5041702;28;20580;-41
2021/08/25 00:16:24;;;;;;;7.83;6.97;;;29.10;42.70;;;;;;5061754;28;20456;-41
2021/08/25 00:18:55;;;;;;;8.23;7.50;;;29.00;43.10;;;;;;5054886;28;20452;-45
2021/08/25 00:21:27;;;;;;;8.77;7.50;;;29.10;42.80;;;;;;5041855;28;20529;-44
2021/08/25 00:24:01;;;;;;;9.10;6.60;;;29.00;43.60;;;;;;5041308;28;20498;-40
2021/08/25 00:26:33;;;;;;;7.07;6.47;;;28.90;43.20;;;;;;5056649;28;20458;-49
2021/08/25 00:29:05;;;;;;;7.80;7.10;;;28.70;43.70;;;;;;5053101;28;20456;-47
2021/08/25 00:31:37;;;;;;;7.70;7.03;;;28.70;42.60;;;;;;5042892;28;20498;-43
2021/08/25 00:34:08;;;;;;;7.50;6.80;;;28.50;42.70;;;;;;5042289;28;20736;-45
2021/08/25 00:36:41;;;;;;;7.10;6.40;;;28.50;43.40;;;;;;5040780;28;20453;-47
2021/08/25 00:39:15;;;;;;;8.57;7.67;;;28.40;43.60;;;;;;5051473;28;21121;-47
2021/08/25 00:41:47;;;;;;;7.67;6.97;;;28.40;42.50;;;;;;5057557;28;20484;-45
2021/08/25 00:44:19;;;;;;;7.73;7.00;;;28.40;43.50;;;;;;5058919;28;20498;-45
2021/08/25 00:46:51;;;;;;;7.27;6.60;;;28.20;44.20;;;;;;5041736;28;20447;-47
2021/08/25 00:49:23;;;;;;;7.10;6.50;;;28.10;44.90;;;;;;5052535;28;20508;-50
2021/08/25 00:51:55;;;;;;;7.40;6.80;;;28.10;44.40;;;;;;5046700;28;20929;-48
2021/08/25 00:54:28;;;;;;;7.67;7.03;;;28.10;44.70;;;;;;5027442;28;20540;-45
2021/08/25 00:57:01;;;;;;;7.43;6.73;;;28.10;44.60;;;;;;5052792;28;20455;-42
2021/08/25 00:59:35;;;;;;;8.00;7.20;;;28.00;45.40;;;;;;5061064;28;20773;-47
2021/08/25 01:02:14;;;;;;;104.28;27.63;;;28.00;45.10;;;;;;5058951;28;20499;-47
2021/08/25 01:04:53;;;;;;;15.83;8.73;;;28.00;44.10;;;;;;5047309;28;20225;-48
2021/08/25 01:07:26;;;;;;;7.30;6.50;;;27.90;44.50;;;;;;5049727;28;20501;-48
2021/08/25 01:10:00;;;;;;;7.10;6.07;;;27.90;44.10;;;;;;5040816;28;20941;-44
2021/08/25 01:12:32;;;;;;;7.10;6.50;;;27.70;44.90;;;;;;5040881;28;21006;-45
2021/08/25 01:15:04;;;;;;;6.53;5.90;;;27.60;44.30;;;;;;5049867;28;20458;-45
2021/08/25 01:17:36;;;;;;;7.13;6.43;;;27.50;43.90;;;;;;5048171;28;20466;-46
2021/08/25 01:20:13;;;;;;;7.73;6.73;;;27.50;44.00;;;;;;5058577;28;20486;-40
2021/08/25 01:22:46;;;;;;;7.40;6.40;;;27.40;44.50;;;;;;5058429;28;20827;-41
2021/08/25 01:25:21;;;;;;;8.53;6.73;;;27.30;45.00;;;;;;5060610;28;20587;-41
2021/08/25 01:27:56;;;;;;;7.10;6.47;;;27.20;45.00;;;;;;5032284;28;20518;-50
2021/08/25 01:30:32;;;;;;;6.27;5.67;;;27.30;44.30;;;;;;5042222;28;20602;-44
2021/08/25 01:33:03;;;;;;;7.30;6.57;;;27.20;44.80;;;;;;5054334;28;20454;-47
2021/08/25 01:35:37;;;;;;;7.70;7.00;;;27.20;45.00;;;;;;5040740;28;20612;-43
2021/08/25 01:38:09;;;;;;;7.37;6.67;;;27.00;46.30;;;;;;5040877;28;20470;-44
2021/08/25 01:40:41;;;;;;;7.60;6.90;;;27.00;46.80;;;;;;5041049;28;20483;-47
2021/08/25 01:43:13;;;;;;;7.10;6.50;;;27.00;48.40;;;;;;5044757;28;20456;-47
2021/08/25 01:45:48;;;;;;;8.80;7.90;;;26.90;48.60;;;;;;5049599;28;20488;-41
2021/08/25 01:48:21;;;;;;;8.47;7.40;;;26.90;48.90;;;;;;5052963;28;20451;-47
2021/08/25 01:50:53;;;;;;;7.73;7.03;;;26.80;49.40;;;;;;5041036;28;20481;-46
2021/08/25 01:53:25;;;;;;;8.30;7.30;;;26.80;49.40;;;;;;5040665;28;20446;-43
2021/08/25 01:55:57;;;;;;;7.23;6.53;;;26.70;50.50;;;;;;5051236;28;20461;-42
2021/08/25 01:58:29;;;;;;;7.90;6.93;;;26.60;50.20;;;;;;5044082;28;20488;-49
2021/08/25 02:01:03;;;;;;;8.93;7.10;;;26.60;50.20;;;;;;5024740;28;20449;-46
2021/08/25 02:03:35;;;;;;;9.30;6.80;;;26.60;49.70;;;;;;5048591;28;20451;-46
2021/08/25 02:06:08;;;;;;;8.20;6.50;;;26.60;50.00;;;;;;5060016;28;20449;-48
2021/08/25 02:08:40;;;;;;;7.73;7.03;;;26.50;51.00;;;;;;5058287;28;20910;-47
2021/08/25 02:11:12;;;;;;;7.07;6.47;;;26.40;51.40;;;;;;5040297;28;20791;-44
2021/08/25 02:13:44;;;;;;;7.40;6.80;;;26.20;52.30;;;;;;5050078;28;20498;-46
2021/08/25 02:16:19;;;;;;;7.93;7.00;;;26.10;52.50;;;;;;5060097;28;20990;-44
2021/08/25 02:18:51;;;;;;;7.27;6.63;;;26.10;52.70;;;;;;5046506;28;20456;-48
2021/08/25 02:21:41;;;;;;;8.07;7.00;;;26.00;52.60;;;;;;5059555;28;20480;-47
2021/08/25 02:24:13;;;;;;;8.77;6.80;;;25.90;52.70;;;;;;5048355;28;20504;-48
2021/08/25 02:26:45;;;;;;;7.57;6.70;;;25.90;53.20;;;;;;5029609;28;20944;-44
2021/08/25 02:29:18;;;;;;;7.40;6.70;;;25.80;53.20;;;;;;5057133;28;20552;-44
2021/08/25 02:31:51;;;;;;;6.43;5.90;;;25.70;53.10;;;;;;5037616;28;20452;-41
2021/08/25 02:34:22;;;;;;;7.20;6.50;;;25.70;53.50;;;;;;5059952;28;20917;-43
2021/08/25 02:36:53;;;;;;;7.60;6.73;;;25.50;54.10;;;;;;5059463;28;20452;-46
2021/08/25 02:39:24;;;;;;;7.30;6.60;;;25.40;53.90;;;;;;5059290;28;20465;-49
2021/08/25 02:41:55;;;;;;;7.40;6.60;;;25.30;53.90;;;;;;5051683;28;20449;-44
2021/08/25 02:44:26;;;;;;;7.87;7.10;;;25.30;54.40;;;;;;5053266;28;20476;-46
2021/08/25 02:46:59;;;;;;;8.20;7.40;;;25.20;54.70;;;;;;5042874;28;20454;-46
2021/08/25 02:49:30;;;;;;;10.10;7.50;;;25.10;54.40;;;;;;5052868;28;20453;-48
2021/08/25 02:52:01;;;;;;;8.33;7.50;;;25.00;54.60;;;;;;5059756;28;20479;-42
2021/08/25 02:54:32;;;;;;;10.67;9.77;;;25.00;55.00;;;;;;5058764;28;20445;-44
2021/08/25 02:57:03;;;;;;;9.30;8.10;;;24.80;55.70;;;;;;5040916;28;20521;-42
2021/08/25 02:59:34;;;;;;;9.23;8.33;;;24.80;55.40;;;;;;5045355;28;20475;-43
2021/08/25 03:02:07;;;;;;;9.43;7.77;;;24.60;56.20;;;;;;5063076;28;20529;-45
2021/08/25 03:04:39;;;;;;;7.63;6.70;;;24.50;56.20;;;;;;5062922;28;20507;-40
2021/08/25 03:07:10;;;;;;;8.30;7.20;;;24.50;56.00;;;;;;5059718;28;20461;-41
2021/08/25 03:09:41;;;;;;;9.00;7.03;;;24.40;56.50;;;;;;5042841;28;20446;-40
2021/08/25 03:12:12;;;;;;;8.60;6.67;;;24.30;56.90;;;;;;5054178;28;20448;-45
2021/08/25 03:14:43;;;;;;;7.50;6.80;;;24.10;57.40;;;;;;5062811;28;20463;-49
2021/08/25 03:17:16;;;;;;;7.80;7.10;;;24.00;57.70;;;;;;5062222;28;20552;-43
2021/08/25 03:19:47;;;;;;;6.90;6.20;;;23.80;58.00;;;;;;5054572;28;20970;-42
2021/08/25 03:22:19;;;;;;;7.30;6.60;;;23.70;58.90;;;;;;5043359;28;20453;-40
2021/08/25 03:24:50;;;;;;;7.73;6.70;;;23.60;59.50;;;;;;5056977;28;20560;-44
2021/08/25 03:27:22;;;;;;;8.07;6.77;;;23.50;59.40;;;;;;5030431;28;20530;-40
2021/08/25 03:29:53;;;;;;;7.20;6.50;;;23.40;59.30;;;;;;5055251;28;20431;-44
2021/08/25 03:32:26;;;;;;;7.90;7.20;;;23.20;59.80;;;;;;5049664;28;20534;-40
2021/08/25 03:34:57;;;;;;;8.63;7.83;;;23.20;61.50;;;;;;5043051;28;20446;-42
2021/08/25 03:37:28;;;;;;;9.73;7.00;;;23.00;60.70;;;;;;5042782;28;20533;-42
2021/08/25 03:40:00;;;;;;;8.37;7.50;;;22.90;60.80;;;;;;5043168;28;20420;-39
2021/08/25 03:42:31;;;;;;;7.40;6.70;;;22.80;62.20;;;;;;5055291;28;20448;-39
2021/08/25 03:45:02;;;;;;;7.90;7.07;;;22.60;62.50;;;;;;5045129;28;20483;-40
2021/08/25 03:47:35;;;;;;;8.50;7.13;;;22.60;63.40;;;;;;5056626;28;20550;-41
2021/08/25 03:50:07;;;;;;;7.17;6.50;;;22.50;63.90;;;;;;5045152;28;20480;-46
2021/08/25 03:52:38;;;;;;;9.07;8.17;;;22.40;64.50;;;;;;5046773;28;20441;-43
2021/08/25 03:55:10;;;;;;;7.93;7.03;;;22.20;64.50;;;;;;5062312;28;20501;-41
2021/08/25 03:57:41;;;;;;;7.47;6.77;;;22.20;64.50;;;;;;5061367;28;20488;-40
2021/08/25 04:00:13;;;;;;;9.50;6.97;;;22.10;64.80;;;;;;5058076;28;20924;-40
2021/08/25 04:02:46;;;;;;;8.20;7.20;;;22.00;64.80;;;;;;5042482;28;20441;-39
2021/08/25 04:05:17;;;;;;;8.77;6.73;;;21.90;65.60;;;;;;5054100;28;20553;-43
2021/08/25 04:07:49;;;;;;;8.90;8.10;;;21.90;65.80;;;;;;5045039;28;20420;-43
2021/08/25 04:10:20;;;;;;;7.90;7.20;;;22.00;65.60;;;;;;5026119;28;20438;-40
2021/08/25 04:12:51;;;;;;;8.20;7.30;;;21.90;66.00;;;;;;5050335;28;20510;-40
2021/08/25 04:15:23;;;;;;;9.40;7.40;;;22.00;65.80;;;;;;5045668;28;20454;-41
2021/08/25 04:17:55;;;;;;;7.43;6.63;;;22.00;65.40;;;;;;5059479;28;20489;-41
2021/08/25 04:20:27;;;;;;;8.07;6.80;;;22.10;65.30;;;;;;5054844;28;20944;-43
2021/08/25 04:23:17;;;;;;;8.20;7.00;;;22.10;65.70;;;;;;5052119;28;20469;-40
2021/08/25 04:25:48;;;;;;;8.00;6.80;;;22.10;66.30;;;;;;5045350;28;20508;-41
2021/08/25 04:28:20;;;;;;;7.03;6.43;;;22.10;67.00;;;;;;5055676;28;20454;-44
2021/08/25 04:30:51;;;;;;;8.70;6.87;;;22.20;67.50;;;;;;5059162;28;20452;-40
2021/08/25 04:33:24;;;;;;;7.67;6.47;;;22.20;68.90;;;;;;5045196;28;20492;-47
2021/08/25 04:35:55;;;;;;;7.40;6.40;;;22.20;68.80;;;;;;5041920;28;20507;-42
2021/08/25 04:38:28;;;;;;;6.80;6.20;;;22.20;68.90;;;;;;5047664;28;20563;-47
2021/08/25 04:40:59;;;;;;;7.57;6.87;;;22.20;70.00;;;;;;5050076;28;20417;-40
2021/08/25 04:43:30;;;;;;;7.87;7.07;;;22.20;69.60;;;;;;5042160;28;20441;-41
2021/08/25 04:46:01;;;;;;;7.13;6.27;;;22.10;70.40;;;;;;5058336;28;20488;-39
2021/08/25 04:48:35;;;;;;;8.50;6.53;;;22.00;70.90;;;;;;5041557;28;20927;-40
2021/08/25 04:51:06;;;;;;;7.10;6.40;;;22.00;71.60;;;;;;5041517;28;20903;-43
2021/08/25 04:53:38;;;;;;;7.57;6.70;;;22.00;72.00;;;;;;5041023;28;20435;-39
2021/08/25 04:56:09;;;;;;;7.20;6.40;;;22.00;72.50;;;;;;5056552;28;20938;-43
2021/08/25 04:58:40;;;;;;;7.87;7.07;;;21.90;73.40;;;;;;5057698;28;20438;-44
2021/08/25 05:01:11;;;;;;;7.13;6.07;;;21.80;73.70;;;;;;5049322;28;20490;-44
2021/08/25 05:03:44;;;;;;;7.00;6.30;;;21.80;74.40;;;;;;5041464;28;20438;-43
2021/08/25 05:06:17;;;;;;;7.73;6.23;;;21.70;74.90;;;;;;5029708;28;20455;-41
2021/08/25 05:08:48;;;;;;;7.60;6.80;;;21.60;75.50;;;;;;5059374;28;20511;-43
2021/08/25 05:11:19;;;;;;;6.97;6.27;;;21.50;76.40;;;;;;5060978;28;20485;-39
2021/08/25 05:13:52;;;;;;;7.43;6.60;;;21.40;77.10;;;;;;5061244;28;20447;-40
2021/08/25 05:16:23;;;;;;;6.90;5.60;;;21.40;77.90;;;;;;5059615;28;20467;-42
2021/08/25 05:18:56;;;;;;;9.20;6.60;;;21.30;78.50;;;;;;5060491;28;20565;-42
2021/08/25 05:21:28;;;;;;;7.50;6.50;;;21.30;79.20;;;;;;5047866;28;20456;-43
2021/08/25 05:24:01;;;;;;;8.20;6.73;;;21.10;80.10;;;;;;5040400;28;20937;-42
2021/08/25 05:26:32;;;;;;;7.30;5.77;;;21.00;80.70;;;;;;5041585;28;20480;-39
2021/08/25 05:29:03;;;;;;;7.43;6.10;;;21.00;81.70;;;;;;5055799;28;20476;-40
2021/08/25 05:31:35;;;;;;;7.00;6.30;;;20.80;82.50;;;;;;5041034;28;20457;-41
2021/08/25 05:34:07;;;;;;;7.63;6.77;;;20.70;83.50;;;;;;5041793;28;20485;-42
2021/08/25 05:36:39;;;;;;;9.47;6.50;;;20.70;84.50;;;;;;5060193;28;20491;-39
2021/08/25 05:39:10;;;;;;;11.10;6.63;;;20.60;85.10;;;;;;5050834;28;20439;-41
2021/08/25 05:41:41;;;;;;;8.77;6.67;;;20.60;85.40;;;;;;5054047;28;20512;-40
2021/08/25 05:44:12;;;;;;;6.00;5.40;;;20.50;85.90;;;;;;5042842;28;20496;-39
2021/08/25 05:46:43;;;;;;;8.20;5.90;;;20.60;86.00;;;;;;5045585;28;20480;-41
2021/08/25 05:49:16;;;;;;;7.10;6.40;;;20.50;86.50;;;;;;5059215;28;20457;-39
2021/08/25 05:51:47;;;;;;;6.93;6.00;;;20.40;87.40;;;;;;5060577;28;20452;-43
2021/08/25 05:54:18;;;;;;;6.67;6.03;;;20.40;87.90;;;;;;5041120;28;20445;-44
2021/08/25 05:56:49;;;;;;;8.93;6.67;;;20.40;88.60;;;;;;5040737;28;20448;-42
2021/08/25 05:59:20;;;;;;;6.80;6.13;;;20.30;88.80;;;;;;5050242;28;20456;-42
2021/08/25 06:01:51;;;;;;;8.57;6.03;;;20.20;89.20;;;;;;5060657;28;20453;-42
2021/08/25 06:04:25;;;;;;;7.10;5.40;;;20.20;90.30;;;;;;5059662;28;20443;-40
2021/08/25 06:06:56;;;;;;;6.60;5.70;;;20.10;90.50;;;;;;5058985;28;20481;-40
2021/08/25 06:09:27;;;;;;;7.00;6.30;;;20.00;91.00;;;;;;5059516;28;20453;-39
2021/08/25 06:11:58;;;;;;;6.83;5.57;;;20.00;91.40;;;;;;5045834;28;20446;-42
2021/08/25 06:14:29;;;;;;;7.37;6.23;;;19.90;91.80;;;;;;5058090;28;20456;-42
2021/08/25 06:17:00;;;;;;;7.00;6.40;;;19.80;92.50;;;;;;5059909;28;20423;-40
2021/08/25 06:19:33;;;;;;;8.10;6.47;;;19.70;92.90;;;;;;5059993;28;20475;-43
2021/08/25 06:22:05;;;;;;;9.13;6.23;;;19.60;93.70;;;;;;5060095;28;20483;-39
2021/08/25 06:24:36;;;;;;;6.30;5.53;;;19.60;94.70;;;;;;5041225;28;20442;-42
2021/08/25 06:27:08;;;;;;;9.67;6.40;;;19.40;95.10;;;;;;5037529;28;20503;-39
2021/08/25 06:29:39;;;;;;;7.30;6.60;;;19.30;96.00;;;;;;5056032;28;20450;-41
2021/08/25 06:32:10;;;;;;;7.00;6.30;;;19.10;96.80;;;;;;5040419;28;20442;-39
2021/08/25 06:34:43;;;;;;;7.20;6.40;;;19.10;97.20;;;;;;5039356;28;20882;-40
2021/08/25 06:37:14;;;;;;;8.93;6.53;;;19.10;97.70;;;;;;5040350;28;20472;-41
2021/08/25 06:39:45;;;;;;;9.07;6.50;;;19.00;98.10;;;;;;5028620;28;20540;-39
2021/08/25 06:42:16;;;;;;;7.33;6.50;;;18.90;98.90;;;;;;5050624;28;20546;-39
2021/08/25 06:44:48;;;;;;;8.53;6.70;;;18.80;99.40;;;;;;5051867;28;20456;-39
2021/08/25 06:47:19;;;;;;;6.40;5.50;;;18.70;99.90;;;;;;5043139;28;20523;-41
2021/08/25 06:49:51;;;;;;;6.77;5.67;;;18.70;99.90;;;;;;5024080;28;20457;-41
2021/08/25 06:52:23;;;;;;;10.07;6.30;;;18.60;99.90;;;;;;5040122;28;20453;-39
2021/08/25 06:54:54;;;;;;;6.73;6.00;;;18.50;99.90;;;;;;5040473;28;20449;-37
2021/08/25 06:57:25;;;;;;;6.83;6.13;;;18.50;99.90;;;;;;5039948;28;20442;-39
2021/08/25 06:59:56;;;;;;;8.77;5.80;;;18.50;99.90;;;;;;5039666;28;20458;-39
2021/08/25 07:02:27;;;;;;;8.87;6.10;;;18.50;99.90;;;;;;5040002;28;20473;-39
2021/08/25 07:05:00;;;;;;;6.90;5.47;;;18.40;99.90;;;;;;5039628;28;20449;-45
2021/08/25 07:07:31;;;;;;;7.03;6.30;;;18.40;99.90;;;;;;5055042;28;20480;-46
2021/08/25 07:10:02;;;;;;;6.60;5.43;;;18.20;99.90;;;;;;5059345;28;20451;-41
2021/08/25 07:12:33;;;;;;;9.97;6.50;;;18.20;99.90;;;;;;5058914;28;20563;-39
2021/08/25 07:15:05;;;;;;;7.23;6.60;;;18.20;99.90;;;;;;5059225;28;20448;-44
2021/08/25 07:17:36;;;;;;;7.30;6.37;;;18.10;99.90;;;;;;5042031;28;20453;-43
2021/08/25 07:20:11;;;;;;;7.73;6.13;;;18.00;99.90;;;;;;5042719;28;20484;-41
2021/08/25 07:22:42;;;;;;;7.20;5.80;;;18.00;99.90;;;;;;5049584;28;20444;-46
2021/08/25 07:25:13;;;;;;;6.77;6.13;;;18.00;99.90;;;;;;5039553;28;20503;-42
2021/08/25 07:27:44;;;;;;;8.13;6.30;;;17.90;99.90;;;;;;5055172;28;20536;-47
2021/08/25 07:30:16;;;;;;;7.60;6.77;;;17.90;99.90;;;;;;5047909;28;20457;-43
2021/08/25 07:32:47;;;;;;;6.27;5.67;;;17.90;99.90;;;;;;5052953;28;20532;-48
2021/08/25 07:35:20;;;;;;;7.37;5.50;;;17.80;99.90;;;;;;5058820;28;20488;-45
2021/08/25 07:37:51;;;;;;;8.63;6.23;;;17.70;99.90;;;;;;5057393;28;20922;-44
2021/08/25 07:40:22;;;;;;;5.93;5.33;;;17.70;99.90;;;;;;5058874;28;20448;-41
2021/08/25 07:42:53;;;;;;;7.90;5.77;;;17.60;99.90;;;;;;5058163;28;20452;-40
2021/08/25 07:45:25;;;;;;;7.30;5.90;;;17.60;99.90;;;;;;5057838;28;20456;-43
2021/08/25 07:47:56;;;;;;;8.40;6.17;;;17.60;99.90;;;;;;5060046;28;20488;-43
2021/08/25 07:50:29;;;;;;;8.00;6.43;;;17.60;99.90;;;;;;5042063;28;20502;-46
2021/08/25 07:53:00;;;;;;;7.90;6.03;;;17.50;99.90;;;;;;5041643;28;20510;-45
2021/08/25 07:55:31;;;;;;;7.27;6.57;;;17.40;99.90;;;;;;5042883;28;20545;-46
2021/08/25 07:58:02;;;;;;;6.93;5.97;;;17.40;99.90;;;;;;5042734;28;20528;-42
2021/08/25 08:00:33;;;;;;;6.30;5.70;;;17.30;99.90;;;;;;5062121;28;20532;-47
2021/08/25 08:03:05;;;;;;;6.37;5.77;;;17.30;99.90;;;;;;5061715;28;20445;-43
2021/08/25 08:05:38;;;;;;;8.07;6.57;;;17.20;99.90;;;;;;5048573;28;20563;-43
2021/08/25 08:08:09;;;;;;;6.23;5.60;;;17.20;99.90;;;;;;5042662;28;20485;-45
2021/08/25 08:10:40;;;;;;;6.57;5.80;;;17.10;99.90;;;;;;5061312;28;20464;-48
2021/08/25 08:13:11;;;;;;;6.90;6.03;;;17.10;99.90;;;;;;5053849;28;20478;-41
2021/08/25 08:15:44;;;;;;;7.17;5.60;;;17.10;99.90;;;;;;5061770;28;20457;-39
2021/08/25 08:18:20;;;;;;;6.43;5.80;;;17.10;99.90;;;;;;5059737;28;20517;-42
2021/08/25 08:20:53;;;;;;;6.10;5.50;;;17.00;99.90;;;;;;5047265;28;20479;-42
2021/08/25 08:23:24;;;;;;;7.07;6.37;;;17.00;99.90;;;;;;5060964;28;20448;-42
2021/08/25 08:25:59;;;;;;;6.53;5.83;;;16.90;99.90;;;;;;5042080;28;20446;-41
2021/08/25 08:28:30;;;;;;;9.90;6.43;;;16.90;99.90;;;;;;5047678;28;20575;-40
2021/08/25 08:31:02;;;;;;;7.60;6.80;;;16.80;99.90;;;;;;5046671;28;20454;-42
2021/08/25 08:33:35;;;;;;;7.87;6.47;;;16.70;99.90;;;;;;5045158;28;20456;-41
2021/08/25 08:36:08;;;;;;;9.00;6.33;;;16.60;99.90;;;;;;5061436;28;20811;-44
2021/08/25 08:38:40;;;;;;;6.80;5.30;;;16.60;99.90;;;;;;5049586;28;20453;-44
2021/08/25 08:41:11;;;;;;;6.97;5.27;;;16.60;99.90;;;;;;5045981;28;20481;-44
2021/08/25 08:43:45;;;;;;;6.67;6.00;;;16.60;99.90;;;;;;5057694;28;20466;-40
2021/08/25 08:46:17;;;;;;;7.70;7.00;;;16.60;99.90;;;;;;5042085;28;20520;-42
2021/08/25 08:48:49;;;;;;;7.33;5.63;;;16.60;99.90;;;;;;5041431;28;20485;-44
2021/08/25 08:51:23;;;;;;;6.30;5.50;;;16.40;99.90;;;;;;5041420;28;20537;-39
2021/08/25 08:53:56;;;;;;;8.03;6.10;;;16.40;99.90;;;;;;5025656;28;20453;-40
2021/08/25 08:56:31;;;;;;;7.13;6.00;;;16.40;99.90;;;;;;5040666;28;20506;-39
2021/08/25 08:59:02;;;;;;;6.70;5.83;;;16.40;99.90;;;;;;5054384;28;20452;-38
2021/08/25 09:01:35;;;;;;;6.13;5.47;;;16.40;99.90;;;;;;5039437;28;20461;-46
2021/08/25 09:04:34;;;;;;;6.80;5.37;;;16.30;99.90;;;;;;5045875;28;21061;-40
2021/08/25 09:07:20;;;;;;;6.80;6.10;;;16.10;99.90;;;;;;5048644;28;20473;-43
2021/08/25 09:09:56;;;;;;;6.47;5.80;;;16.20;99.90;;;;;;5043258;28;20454;-45
2021/08/25 09:12:27;;;;;;;7.37;6.13;;;16.10;99.90;;;;;;5060437;28;20544;-43
2021/08/25 09:14:58;;;;;;;6.23;5.63;;;16.00;99.90;;;;;;5061003;28;20878;-40
2021/08/25 09:17:30;;;;;;;6.73;6.00;;;16.00;99.90;;;;;;5060486;28;20452;-40
2021/08/25 09:20:13;;;;;;;5.70;5.10;;;16.00;99.90;;;;;;5024836;28;20498;-40
2021/08/25 09:22:46;;;;;;;5.90;5.30;;;15.90;99.90;;;;;;5048992;28;20449;-43
2021/08/25 09:25:33;;;;;;;8.60;5.80;;;15.90;99.90;;;;;;5060427;28;20459;-41
2021/08/25 09:28:04;;;;;;;6.47;4.80;;;15.90;99.90;;;;;;5038378;28;20480;-45
2021/08/25 09:31:00;;;;;;;6.67;5.63;;;15.90;99.90;;;;;;5056916;28;20464;-39
2021/08/25 09:33:33;;;;;;;8.13;5.63;;;15.90;99.90;;;;;;5029332;28;20494;-41
2021/08/25 09:36:06;;;;;;;7.17;5.70;;;15.80;99.90;;;;;;5049359;28;20433;-38
2021/08/25 09:38:40;;;;;;;7.60;6.17;;;15.70;99.90;;;;;;5060345;28;20449;-40
2021/08/25 09:41:12;;;;;;;7.70;5.90;;;15.70;99.90;;;;;;5059609;28;20460;-39
2021/08/25 09:43:45;;;;;;;8.70;6.40;;;15.60;99.90;;;;;;5060394;28;20456;-41
2021/08/25 09:46:18;;;;;;;8.33;6.20;;;15.50;99.90;;;;;;5051394;28;20457;-43
2021/08/25 09:48:51;;;;;;;7.30;5.60;;;15.50;99.90;;;;;;5048272;28;20504;-43
2021/08/25 09:51:23;;;;;;;6.17;5.57;;;15.50;99.90;;;;;;5040511;28;20483;-42
2021/08/25 09:54:06;;;;;;;9.13;6.13;;;15.40;99.90;;;;;;5040307;28;20898;-42
2021/08/25 09:56:38;;;;;;;6.13;5.30;;;15.40;99.90;;;;;;5051624;28;20509;-42
2021/08/25 09:59:12;;;;;;;7.73;5.70;;;15.40;99.90;;;;;;5059434;28;20523;-42
2021/08/25 10:01:45;;;;;;;5.97;5.37;;;15.20;99.90;;;;;;5030407;28;20445;-39
2021/08/25 10:04:17;;;;;;;11.30;6.37;;;15.10;99.90;;;;;;5060118;28;20460;-40
2021/08/25 10:06:50;;;;;;;8.10;6.40;;;15.20;99.90;;;;;;5060122;27;21724;-40
2021/08/25 10:09:23;;;;;;;7.00;5.97;;;15.20;99.90;;;;;;5042994;28;20534;-42
2021/08/25 10:11:59;;;;;;;7.60;5.90;;;15.20;99.90;;;;;;5043817;28;20449;-41
2021/08/25 10:14:32;;;;;;;8.13;6.10;;;15.20;99.90;;;;;;5059811;28;20477;-43
2021/08/25 10:17:04;;;;;;;6.30;5.53;;;15.10;99.90;;;;;;5059905;28;20463;-43
2021/08/25 10:19:37;;;;;;;7.37;6.30;;;15.10;99.90;;;;;;5057238;28;20934;-43
2021/08/25 10:25:16;;;;;;;8.67;6.37;;;15.00;99.90;;;;;;5040138;28;20510;-41
2021/08/25 10:28:02;;;;;;;7.20;6.47;;;15.00;99.90;;;;;;5043854;28;20532;-39
2021/08/25 10:30:53;;;;;;;6.90;5.90;;;15.00;99.90;;;;;;5050056;28;20452;-39
2021/08/25 10:33:25;;;;;;;7.20;6.50;;;15.00;99.90;;;;;;5053879;28;20445;-41
2021/08/25 10:35:56;;;;;;;6.93;6.20;;;14.90;99.90;;;;;;5056147;28;20563;-38
2021/08/25 10:38:30;;;;;;;8.77;6.03;;;14.90;99.90;;;;;;5039739;28;20457;-39
2021/08/25 10:41:22;;;;;;;8.00;6.23;;;14.80;99.90;;;;;;5039508;28;20546;-40
2021/08/25 10:43:55;;;;;;;8.87;6.60;;;14.80;99.90;;;;;;5039736;28;20506;-44
2021/08/25 10:46:49;;;;;;;7.07;6.37;;;14.80;99.90;;;;;;5040343;28;20509;-39
2021/08/25 10:49:32;;;;;;;7.77;6.37;;;14.80;99.90;;;;;;5039287;28;20491;-45
2021/08/25 10:52:27;;;;;;;7.10;5.00;;;14.70;99.90;;;;;;5058614;28;20464;-39
2021/08/25 10:54:59;;;;;;;6.30;5.50;;;14.60;99.90;;;;;;5059010;28;20901;-41
2021/08/25 10:57:31;;;;;;;8.30;6.00;;;14.50;99.90;;;;;;5059041;28;20452;-40
2021/08/25 11:00:11;;;;;;;8.47;5.60;;;14.50;99.90;;;;;;5059073;28;20467;-39
2021/08/25 11:02:43;;;;;;;6.90;6.30;;;14.50;99.90;;;;;;5059126;28;20460;-39
2021/08/25 11:05:14;;;;;;;8.40;6.43;;;14.50;99.90;;;;;;5059074;28;20565;-43
2021/08/25 11:07:47;;;;;;;7.30;5.97;;;14.50;99.90;;;;;;5043467;28;20476;-40
2021/08/25 11:10:25;;;;;;;7.50;5.87;;;14.40;99.90;;;;;;5058321;28;20488;-41
2021/08/25 11:12:58;;;;;;;7.80;6.60;;;14.30;99.90;;;;;;5051139;28;20456;-40
2021/08/25 11:15:33;;;;;;;7.00;5.83;;;14.30;99.90;;;;;;5039367;28;20860;-39
2021/08/25 11:18:05;;;;;;;9.67;6.20;;;14.30;99.90;;;;;;5040504;28;20457;-39
2021/08/25 11:20:36;;;;;;;7.33;6.00;;;14.30;99.90;;;;;;5025171;28;20618;-44
2021/08/25 11:23:08;;;;;;;8.43;7.00;;;14.30;99.90;;;;;;5050700;28;20459;-41
2021/08/25 11:25:54;;;;;;;10.10;6.10;;;14.20;99.90;;;;;;5048157;28;20458;-40
2021/08/25 11:28:27;;;;;;;6.80;6.17;;;14.20;99.90;;;;;;5043047;28;20458;-39
2021/08/25 11:30:59;;;;;;;7.27;5.73;;;14.10;99.90;;;;;;5049086;28;20974;-39
2021/08/25 11:33:30;;;;;;;8.50;5.87;;;14.20;99.90;;;;;;5051135;28;20456;-39
2021/08/25 11:36:05;;;;;;;7.00;6.13;;;14.10;99.90;;;;;;5042764;28;20827;-39
2021/08/25 11:38:37;;;;;;;8.17;5.83;;;14.00;99.90;;;;;;5044950;28;20449;-39
2021/08/25 11:41:08;;;;;;;7.53;6.03;;;14.00;99.90;;;;;;5061799;28;20478;-41
2021/08/25 11:43:50;;;;;;;6.37;5.63;;;14.00;99.90;;;;;;5050216;28;20449;-40
2021/08/25 11:46:28;;;;;;;7.03;5.90;;;14.10;99.90;;;;;;5058954;28;20449;-40
2021/08/25 11:49:02;;;;;;;9.00;6.00;;;14.00;99.90;;;;;;5059640;28;20476;-43
2021/08/25 11:51:34;;;;;;;7.63;6.27;;;13.90;99.90;;;;;;5053004;28;20452;-39
2021/08/25 11:54:05;;;;;;;7.40;5.63;;;14.00;99.90;;;;;;5055953;28;20432;-39
2021/08/25 11:56:44;;;;;;;7.10;6.07;;;13.90;99.90;;;;;;5061409;28;20452;-39
2021/08/25 11:59:17;;;;;;;8.90;6.40;;;13.80;99.90;;;;;;5054787;28;20457;-39
2021/08/25 12:01:48;;;;;;;9.53;6.13;;;13.80;99.90;;;;;;5042684;28;20483;-39
2021/08/25 12:04:28;;;;;;;6.70;5.70;;;13.80;99.90;;;;;;5057697;28;20444;-41
2021/08/25 12:07:00;;;;;;;7.80;6.80;;;13.80;99.90;;;;;;5027321;28;20438;-39
2021/08/25 12:09:32;;;;;;;7.13;6.10;;;13.70;99.90;;;;;;5042050;28;20541;-39
2021/08/25 12:12:04;;;;;;;6.17;5.57;;;13.60;99.90;;;;;;5054694;28;20513;-40
2021/08/25 12:14:51;;;;;;;7.50;6.70;;;13.50;99.90;;;;;;5044431;28;20471;-39
2021/08/25 12:17:23;;;;;;;9.83;6.50;;;13.60;99.90;;;;;;5041983;28;20453;-41
2021/08/25 12:20:00;;;;;;;8.70;5.97;;;13.50;99.90;;;;;;5052585;28;20482;-39
2021/08/25 12:22:32;;;;;;;7.33;5.43;;;13.60;99.90;;;;;;5062066;28;20456;-39
2021/08/25 12:25:03;;;;;;;7.70;6.37;;;13.50;99.90;;;;;;5025572;28;20493;-37
2021/08/25 12:27:47;;;;;;;8.60;6.50;;;13.50;99.90;;;;;;5031953;28;20453;-39
2021/08/25 12:30:38;;;;;;;7.77;6.00;;;13.50;99.90;;;;;;5049154;28;20487;-42
2021/08/25 12:33:10;;;;;;;8.93;6.13;;;13.50;99.90;;;;;;5043269;28;20457;-42
2021/08/25 12:35:41;;;;;;;8.37;6.17;;;13.50;99.90;;;;;;5061489;28;20449;-40
2021/08/25 12:38:13;;;;;;;7.60;5.70;;;13.40;99.90;;;;;;5061080;28;20448;-40
2021/08/25 12:40:44;;;;;;;8.30;6.33;;;13.40;99.90;;;;;;5061710;28;20448;-38
2021/08/25 12:43:15;;;;;;;7.47;6.20;;;13.40;99.90;;;;;;5030376;28;20489;-39
2021/08/25 12:45:47;;;;;;;6.70;6.00;;;13.40;99.90;;;;;;5053554;28;20467;-40
2021/08/25 12:48:19;;;;;;;6.80;5.50;;;13.40;99.90;;;;;;5041522;28;20496;-39
2021/08/25 12:50:50;;;;;;;8.13;6.20;;;13.40;99.90;;;;;;5057515;28;20494;-39
2021/08/25 12:53:21;;;;;;;6.93;5.73;;;13.30;99.90;;;;;;5030287;28;20448;-41
2021/08/25 12:55:52;;;;;;;6.17;5.57;;;13.30;99.90;;;;;;5053018;28;20507;-40
2021/08/25 12:58:24;;;;;;;6.77;6.07;;;13.30;99.90;;;;;;5053699;28;20461;-39
2021/08/25 13:00:57;;;;;;;8.50;7.00;;;13.20;99.90;;;;;;5061085;28;20918;-39
2021/08/25 13:03:28;;;;;;;6.80;5.43;;;13.20;99.90;;;;;;5056690;28;20461;-39
2021/08/25 13:06:02;;;;;;;7.50;6.00;;;13.20;99.90;;;;;;5041098;28;21259;-39
2021/08/25 13:08:33;;;;;;;8.30;6.93;;;13.20;99.90;;;;;;5041182;28;20461;-41
2021/08/25 13:11:04;;;;;;;9.37;6.40;;;13.20;99.90;;;;;;5056984;28;20528;-40
2021/08/25 13:13:35;;;;;;;7.00;6.30;;;13.20;99.90;;;;;;5046314;28;20448;-39
2021/08/25 13:16:08;;;;;;;6.77;5.87;;;13.20;99.90;;;;;;5060763;28;20460;-39
2021/08/25 13:18:39;;;;;;;8.77;6.47;;;13.20;99.90;;;;;;5061298;28;20482;-39